Time;durP1;ratioP1;P1;durP2;ratioP2;P2;SDS_P1;SDS_P2;PMS_P1;PMS_P2;Temp;Humidity;BMP_temperature;BMP_pressure;BME280_temperature;BME280_humidity;BME280_pressure;Samples;Min_cycle;Max_cycle;Signal;HPM_P1;HPM_P2
2021/06/25 00:02:05;;;;;;;21.83;15.73;;;19.30;80.90;;;18.68;72.64;100838.72;5007654;28;20053;-87
2021/06/25 00:04:35;;;;;;;20.33;14.65;;;19.30;81.40;;;18.68;72.82;100835.97;5007099;28;20049;-87
2021/06/25 00:07:05;;;;;;;22.70;15.65;;;19.20;81.60;;;18.67;72.95;100833.44;5008767;28;20066;-88
2021/06/25 00:09:35;;;;;;;20.07;15.07;;;19.20;81.60;;;18.66;73.03;100835.34;5007133;28;20073;-87
2021/06/25 00:12:06;;;;;;;22.50;15.52;;;19.20;81.70;;;18.67;73.11;100825.16;5008801;28;20056;-88
2021/06/25 00:14:37;;;;;;;21.65;15.55;;;19.20;81.80;;;18.66;73.24;100832.59;5024090;28;20069;-87
2021/06/25 00:17:05;;;;;;;32.33;17.20;;;19.20;82.10;;;18.64;73.19;100834.75;5007015;28;20054;-87
2021/06/25 00:19:36;;;;;;;23.17;16.23;;;19.20;82.00;;;18.62;73.29;100834.13;5008758;28;20049;-87
2021/06/25 00:22:06;;;;;;;23.10;16.20;;;19.10;82.30;;;18.62;73.35;100831.38;5008084;28;20046;-87
2021/06/25 00:24:33;;;;;;;22.93;16.40;;;19.10;82.20;;;18.61;73.30;100820.59;5023545;28;20053;-87
2021/06/25 00:27:01;;;;;;;24.52;17.42;;;19.10;82.40;;;18.59;72.96;100823.56;5022891;28;20042;-87
2021/06/25 00:29:30;;;;;;;25.55;17.70;;;19.00;82.10;;;18.58;73.23;100810.84;5023179;28;20061;-87
2021/06/25 00:32:00;;;;;;;28.52;17.05;;;19.00;82.10;;;18.56;73.15;100812.97;5022963;28;20046;-87
2021/06/25 00:34:27;;;;;;;25.20;17.52;;;19.00;82.00;;;18.56;73.07;100818.50;5008171;28;20046;-87
2021/06/25 00:36:55;;;;;;;22.73;17.20;;;19.10;82.00;;;18.56;73.01;100821.25;5022968;28;20104;-87
2021/06/25 00:39:23;;;;;;;24.58;17.38;;;19.00;81.80;;;18.54;73.07;100820.66;5005897;28;20149;-87
2021/06/25 00:41:50;;;;;;;25.27;17.98;;;19.00;82.00;;;18.51;72.98;100821.97;5022859;28;20054;-87
2021/06/25 00:44:20;;;;;;;24.17;17.42;;;19.00;81.70;;;18.51;73.16;100816.44;5006377;28;20111;-88
2021/06/25 00:47:13;;;;;;;29.35;19.38;;;19.00;82.00;;;18.51;72.89;100815.63;5022916;28;20062;-87
2021/06/25 00:49:43;;;;;;;27.30;18.88;;;19.00;81.90;;;18.50;72.86;100819.44;5006502;28;20053;-87
2021/06/25 00:52:18;;;;;;;27.13;18.17;;;19.00;82.00;;;18.49;73.02;100812.25;5022703;28;20120;-87
2021/06/25 00:54:46;;;;;;;25.35;17.90;;;18.90;81.90;;;18.47;72.97;100808.88;5018268;28;20069;-87
2021/06/25 00:57:14;;;;;;;28.42;19.05;;;18.90;82.10;;;18.45;72.76;100809.09;5022651;28;20072;-87
2021/06/25 00:59:47;;;;;;;29.05;18.00;;;18.90;81.90;;;18.46;72.90;100812.69;5023085;28;20054;-87
2021/06/25 01:02:16;;;;;;;25.80;18.10;;;18.90;82.30;;;18.46;72.73;100815.44;5007652;28;20599;-87
2021/06/25 01:04:43;;;;;;;25.13;18.63;;;18.80;82.10;;;18.41;72.54;100823.56;5007705;28;20578;-87
2021/06/25 01:07:11;;;;;;;25.50;18.20;;;18.80;81.70;;;18.41;72.63;100818.03;5021900;28;20061;-87
2021/06/25 01:09:41;;;;;;;26.35;18.73;;;18.80;82.00;;;18.36;72.56;100825.09;5022754;28;20058;-87
2021/06/25 01:12:10;;;;;;;28.90;20.13;;;18.70;81.80;;;18.33;72.79;100814.53;5022385;28;20115;-87
2021/06/25 01:14:39;;;;;;;29.83;18.83;;;18.80;81.70;;;18.37;72.32;100812.13;5022502;28;20324;-87
2021/06/25 01:17:07;;;;;;;28.67;18.77;;;18.70;81.60;;;18.37;72.42;100820.41;5022132;28;20052;-87
2021/06/25 01:19:36;;;;;;;27.25;18.58;;;18.70;82.00;;;18.36;72.79;100811.31;5007614;28;20100;-87
2021/06/25 01:22:05;;;;;;;28.52;19.23;;;18.70;82.40;;;18.33;72.60;100813.66;5022224;28;20510;-88
2021/06/25 01:24:33;;;;;;;30.48;19.88;;;18.70;82.20;;;18.31;72.57;100821.31;5022278;28;20057;-87
2021/06/25 01:27:00;;;;;;;28.70;19.48;;;18.60;82.20;;;18.29;72.48;100816.03;5022113;28;20555;-87
2021/06/25 01:29:27;;;;;;;29.65;19.98;;;18.50;82.50;;;18.24;72.46;100815.03;5021979;28;20041;-87
2021/06/25 01:31:58;;;;;;;30.40;19.83;;;18.50;82.40;;;18.21;72.22;100813.59;5022093;28;20057;-87
2021/06/25 01:34:28;;;;;;;37.73;20.77;;;18.50;82.30;;;18.21;71.86;100807.25;5007038;28;20056;-86
2021/06/25 01:36:56;;;;;;;30.50;19.42;;;18.40;81.80;;;18.19;71.38;100810.22;5022281;28;20320;-87
2021/06/25 01:39:29;;;;;;;31.48;20.20;;;18.40;81.70;;;18.15;71.67;100807.09;5005163;28;20057;-87
2021/06/25 01:41:56;;;;;;;31.23;20.38;;;18.30;81.80;;;18.14;71.40;100815.56;5022036;28;20068;-87
2021/06/25 01:44:23;;;;;;;26.23;19.45;;;18.30;81.90;;;18.13;71.16;100813.91;5022036;28;20454;-86
2021/06/25 01:46:51;;;;;;;29.90;20.00;;;18.20;81.60;;;18.13;71.00;100811.97;5022613;28;20515;-87
2021/06/25 01:49:18;;;;;;;31.15;19.17;;;18.20;81.30;;;18.12;70.65;100812.19;5026944;28;20595;-87
2021/06/25 01:51:48;;;;;;;30.95;19.23;;;18.20;81.50;;;18.10;70.72;100808.84;5025899;28;20049;-87
2021/06/25 01:54:16;;;;;;;27.58;18.83;;;18.10;81.40;;;18.08;70.71;100799.97;5025137;28;20065;-86
2021/06/25 01:56:46;;;;;;;29.30;18.63;;;18.10;81.40;;;18.05;70.44;100794.88;5024572;28;20200;-87
2021/06/25 01:59:14;;;;;;;25.02;18.27;;;18.00;81.20;;;18.01;70.18;100807.44;5026754;28;20498;-87
2021/06/25 02:01:42;;;;;;;24.92;17.02;;;18.00;81.20;;;17.97;70.12;100799.66;5024767;28;20045;-87
2021/06/25 02:04:09;;;;;;;26.15;17.73;;;17.90;81.50;;;17.92;70.22;100796.72;5024671;28;20057;-87
2021/06/25 02:06:37;;;;;;;28.08;18.30;;;17.80;81.70;;;17.90;70.22;100793.34;5024561;28;20087;-87
2021/06/25 02:09:04;;;;;;;27.73;17.65;;;17.80;81.50;;;17.82;70.31;100793.63;5024329;28;20172;-87
2021/06/25 02:11:32;;;;;;;26.00;18.70;;;17.80;81.70;;;17.83;69.96;100803.53;5026048;28;20050;-87
2021/06/25 02:14:00;;;;;;;24.70;18.55;;;17.70;81.70;;;17.81;70.07;100794.66;5024659;28;20069;-87
2021/06/25 02:16:28;;;;;;;27.77;19.63;;;17.70;81.60;;;17.80;70.09;100798.50;5025790;28;20069;-87
2021/06/25 02:18:55;;;;;;;35.50;19.65;;;17.70;81.70;;;17.79;69.92;100791.31;5024492;28;20061;-87
2021/06/25 02:21:22;;;;;;;24.00;17.15;;;17.60;81.50;;;17.75;69.82;100795.59;5025850;28;20537;-86
2021/06/25 02:23:52;;;;;;;24.92;16.98;;;17.60;81.60;;;17.74;69.99;100789.25;5024490;28;20049;-87
2021/06/25 02:26:20;;;;;;;25.67;16.42;;;17.50;82.10;;;17.73;69.99;100792.22;5024247;28;20596;-87
2021/06/25 02:28:47;;;;;;;24.63;16.60;;;17.50;82.30;;;17.71;69.79;100783.34;5026101;28;20076;-87
2021/06/25 02:31:17;;;;;;;25.05;17.02;;;17.50;82.30;;;17.66;70.08;100789.50;5032471;23;20124;-82
2021/06/25 02:33:44;;;;;;;24.95;16.75;;;17.40;82.30;;;17.66;69.90;100795.00;5009034;28;20111;-82
2021/06/25 02:36:12;;;;;;;25.20;17.27;;;17.40;82.50;;;17.63;69.84;100794.63;5007099;28;20046;-82
2021/06/25 02:38:39;;;;;;;24.23;17.38;;;17.30;82.60;;;17.58;69.89;100789.78;5008796;28;20046;-82
2021/06/25 02:41:06;;;;;;;23.98;16.33;;;17.20;82.80;;;17.55;70.09;100785.59;4999247;28;20136;-82
2021/06/25 02:43:34;;;;;;;24.70;17.55;;;17.20;83.10;;;17.50;70.08;100782.66;4989160;28;20065;-82
2021/06/25 02:46:01;;;;;;;23.92;17.15;;;17.10;83.10;;;17.47;69.99;100777.59;4989157;28;20121;-82
2021/06/25 02:48:30;;;;;;;23.92;16.55;;;17.10;83.10;;;17.45;69.93;100785.22;4989288;28;20505;-82
2021/06/25 02:50:57;;;;;;;24.88;16.13;;;17.10;83.20;;;17.43;69.98;100776.34;4989186;28;20510;-82
2021/06/25 02:53:24;;;;;;;22.80;16.23;;;17.00;83.20;;;17.38;70.00;100778.94;4987554;28;20070;-82
2021/06/25 02:55:51;;;;;;;26.17;17.17;;;17.00;83.20;;;17.36;70.05;100781.06;4992510;28;20631;-82
2021/06/25 02:58:20;;;;;;;27.27;16.98;;;17.00;83.40;;;17.36;70.04;100786.56;5008655;28;20056;-82
2021/06/25 03:00:47;;;;;;;21.85;16.42;;;16.90;83.60;;;17.32;70.15;100774.31;5008497;28;20081;-82
2021/06/25 03:03:15;;;;;;;23.90;16.50;;;16.90;83.70;;;17.31;70.02;100783.66;5013691;28;20627;-82
2021/06/25 03:05:43;;;;;;;24.80;16.92;;;16.80;83.70;;;17.24;70.19;100780.09;4992848;28;20046;-81
2021/06/25 03:08:12;;;;;;;23.35;16.20;;;16.80;83.80;;;17.22;70.15;100776.75;4992866;28;20085;-82
2021/06/25 03:10:41;;;;;;;25.55;15.88;;;16.70;84.10;;;17.20;70.15;100777.78;4992700;28;20050;-82
2021/06/25 03:13:09;;;;;;;26.60;16.80;;;16.70;84.10;;;17.11;70.30;100773.63;4993090;28;20121;-82
2021/06/25 03:15:36;;;;;;;21.80;16.20;;;16.70;84.10;;;17.11;70.34;100776.38;4992872;28;20137;-82
2021/06/25 03:18:03;;;;;;;25.23;17.52;;;16.60;84.10;;;17.09;70.44;100778.50;4990886;28;20054;-82
2021/06/25 03:20:31;;;;;;;21.20;15.38;;;16.60;84.30;;;17.08;70.21;100785.06;4992977;28;20050;-82
2021/06/25 03:22:59;;;;;;;23.48;15.77;;;16.60;84.20;;;17.06;70.13;100786.34;4992620;28;20170;-82
2021/06/25 03:25:26;;;;;;;23.25;16.25;;;16.50;84.10;;;17.06;70.06;100784.47;4992982;28;20043;-82
2021/06/25 03:27:54;;;;;;;23.80;16.95;;;16.50;84.00;;;17.00;69.86;100779.81;4992480;28;20121;-82
2021/06/25 03:30:22;;;;;;;23.88;15.65;;;16.50;84.00;;;17.00;69.90;100777.06;4992604;28;20565;-81
2021/06/25 03:32:49;;;;;;;23.38;15.27;;;16.50;84.00;;;16.99;69.67;100780.91;4991129;28;20092;-82
2021/06/25 03:35:16;;;;;;;23.00;16.25;;;16.40;83.90;;;16.94;69.72;100780.72;4992589;28;20042;-81
2021/06/25 03:37:44;;;;;;;21.77;15.95;;;16.40;83.90;;;16.93;69.78;100777.13;4990305;28;20050;-82
2021/06/25 03:40:16;;;;;;;25.33;15.93;;;16.40;84.00;;;16.89;69.60;100775.88;4992323;28;20046;-81
2021/06/25 03:42:44;;;;;;;22.50;15.52;;;16.30;84.00;;;16.88;69.61;100784.34;4992472;28;20050;-81
2021/06/25 03:45:15;;;;;;;20.70;15.60;;;16.30;84.10;;;16.81;69.63;100787.94;4988953;28;20121;-81
2021/06/25 03:47:43;;;;;;;24.20;15.80;;;16.30;84.30;;;16.81;69.77;100787.94;4992055;28;20167;-81
2021/06/25 03:50:13;;;;;;;24.40;17.30;;;16.30;84.10;;;16.79;69.96;100780.97;4991998;28;20082;-81
2021/06/25 03:52:41;;;;;;;24.83;16.83;;;16.30;84.10;;;16.76;70.02;100790.50;4992282;28;20092;-81
2021/06/25 03:55:12;;;;;;;25.30;16.92;;;16.30;84.20;;;16.75;70.21;100790.72;4991886;28;20133;-81
2021/06/25 03:57:41;;;;;;;24.08;17.00;;;16.30;84.30;;;16.76;70.39;100792.41;4991795;28;20094;-82
2021/06/25 04:00:12;;;;;;;24.30;17.23;;;16.30;84.50;;;16.75;70.42;100791.56;4991629;28;20042;-82
2021/06/25 04:02:40;;;;;;;26.57;17.33;;;16.30;84.60;;;16.76;70.63;100793.25;4992275;28;20062;-81
2021/06/25 04:05:09;;;;;;;24.17;17.02;;;16.30;84.70;;;16.77;70.76;100789.44;4991996;28;20285;-81
2021/06/25 04:07:38;;;;;;;27.15;17.73;;;16.40;84.80;;;16.77;70.97;100786.69;4991484;28;20586;-81
2021/06/25 04:10:08;;;;;;;30.65;19.65;;;16.40;84.70;;;16.77;70.87;100789.44;4991677;28;20050;-82
2021/06/25 04:12:37;;;;;;;28.47;17.83;;;16.50;84.90;;;16.75;71.17;100787.97;4972349;28;20840;-82
2021/06/25 04:15:07;;;;;;;26.95;18.52;;;16.50;84.80;;;16.75;71.43;100786.09;4976834;28;20513;-82
2021/06/25 04:17:35;;;;;;;32.42;17.80;;;16.50;84.70;;;16.76;71.40;100786.91;4991486;28;20137;-81
2021/06/25 04:20:04;;;;;;;25.90;17.48;;;16.50;84.70;;;16.73;71.51;100782.69;4991474;28;20140;-82
2021/06/25 04:22:31;;;;;;;26.80;17.92;;;16.60;84.60;;;16.73;71.68;100784.59;4991625;28;20137;-80
2021/06/25 04:24:58;;;;;;;25.33;17.50;;;16.60;84.70;;;16.75;71.73;100783.34;4991466;28;20046;-85
2021/06/25 04:27:26;;;;;;;25.88;17.65;;;16.60;84.80;;;16.78;71.74;100785.63;4991307;28;20073;-78
2021/06/25 04:29:54;;;;;;;26.50;17.73;;;16.60;84.60;;;16.78;71.77;100787.53;4991321;28;20112;-78
2021/06/25 04:32:22;;;;;;;27.65;17.42;;;16.70;84.50;;;16.79;71.82;100786.47;4991336;28;20109;-78
2021/06/25 04:34:50;;;;;;;25.75;17.85;;;16.70;84.60;;;16.77;72.00;100785.84;4990408;28;20045;-77
2021/06/25 04:37:19;;;;;;;25.85;17.75;;;16.80;84.30;;;16.78;72.31;100791.13;4989776;28;20042;-77
2021/06/25 04:39:46;;;;;;;23.58;17.00;;;16.90;84.10;;;16.79;72.44;100787.31;4991083;28;20050;-77
2021/06/25 04:42:14;;;;;;;25.88;17.17;;;17.00;83.60;;;16.81;72.65;100795.31;4989248;28;20477;-77
2021/06/25 04:44:41;;;;;;;29.73;17.33;;;17.20;83.40;;;16.78;72.96;100793.88;4991161;28;20181;-77
2021/06/25 04:47:10;;;;;;;26.45;18.35;;;17.40;82.70;;;16.84;72.69;100792.19;4990459;28;20069;-77
2021/06/25 04:49:40;;;;;;;26.85;17.70;;;17.50;81.90;;;16.90;72.94;100788.53;4990740;28;20133;-77
2021/06/25 04:52:08;;;;;;;28.13;17.83;;;17.70;81.80;;;16.95;73.07;100785.16;4990556;28;20053;-77
2021/06/25 04:54:36;;;;;;;28.25;19.55;;;17.80;81.10;;;17.03;73.25;100775.81;4990941;28;20144;-78
2021/06/25 04:57:04;;;;;;;26.27;18.27;;;18.00;80.80;;;17.13;72.94;100771.47;4971059;28;20447;-78
2021/06/25 04:59:31;;;;;;;28.02;19.33;;;18.10;80.90;;;17.19;72.93;100762.38;4970988;28;20078;-78
2021/06/25 05:01:59;;;;;;;27.23;18.02;;;18.10;80.90;;;17.25;72.87;100768.03;4970987;28;20045;-78
2021/06/25 05:04:27;;;;;;;26.83;19.10;;;18.10;81.20;;;17.29;72.63;100770.13;4970808;28;20109;-78
2021/06/25 05:06:54;;;;;;;26.45;18.73;;;18.10;81.10;;;17.29;72.89;100764.63;4973675;28;20039;-78
2021/06/25 05:09:22;;;;;;;28.90;18.83;;;18.10;81.20;;;17.34;72.41;100766.69;4971068;28;20042;-78
2021/06/25 05:11:49;;;;;;;29.25;19.58;;;18.20;80.70;;;17.37;72.42;100760.75;4971019;28;20488;-78
2021/06/25 05:14:16;;;;;;;30.35;19.45;;;18.30;80.30;;;17.43;72.45;100761.75;4971312;28;20074;-77
2021/06/25 05:16:43;;;;;;;28.95;19.15;;;18.40;79.60;;;17.44;72.06;100761.56;4970256;28;20047;-78
2021/06/25 05:19:11;;;;;;;32.45;20.42;;;18.60;78.70;;;17.49;71.69;100761.69;4970994;28;20141;-78
2021/06/25 05:21:39;;;;;;;30.50;19.35;;;18.70;78.10;;;17.55;71.74;100766.31;4970753;28;20089;-78
2021/06/25 05:24:08;;;;;;;33.13;20.40;;;18.90;77.70;;;17.55;71.29;100760.81;4971101;28;20043;-78
2021/06/25 05:26:35;;;;;;;28.10;20.02;;;19.00;76.80;;;17.62;71.23;100758.00;4969611;28;20039;-78
2021/06/25 05:29:03;;;;;;;28.63;18.88;;;19.00;76.60;;;17.69;71.11;100752.44;4973977;28;20125;-78
2021/06/25 05:31:31;;;;;;;28.52;19.25;;;19.00;76.80;;;17.72;70.47;100757.47;4989899;28;20093;-78
2021/06/25 05:33:59;;;;;;;32.40;19.70;;;19.00;76.50;;;17.75;70.51;100757.03;4989127;28;20772;-78
2021/06/25 05:36:26;;;;;;;29.25;19.60;;;19.00;76.60;;;17.79;70.47;100750.00;4989772;28;20499;-77
2021/06/25 05:38:55;;;;;;;31.83;20.55;;;18.90;76.80;;;17.81;70.30;100760.81;4988191;28;20050;-78
2021/06/25 05:41:22;;;;;;;30.35;19.08;;;19.00;76.40;;;17.83;69.86;100751.25;4989856;28;20128;-77
2021/06/25 05:43:49;;;;;;;29.27;20.13;;;18.90;76.30;;;17.85;69.62;100751.88;4989598;28;20396;-77
2021/06/25 05:46:17;;;;;;;29.52;20.23;;;19.00;75.80;;;17.84;69.23;100760.31;4989671;28;20073;-78
2021/06/25 05:48:44;;;;;;;28.83;19.65;;;18.90;75.90;;;17.88;69.68;100756.09;4989710;28;20557;-78
2021/06/25 05:51:11;;;;;;;30.10;19.23;;;18.90;76.30;;;17.91;69.90;100761.97;4989353;28;20050;-78
2021/06/25 05:53:39;;;;;;;32.88;21.10;;;19.20;76.30;;;18.03;69.08;100758.47;4989716;28;20052;-79
2021/06/25 05:56:08;;;;;;;29.80;19.38;;;20.20;72.40;;;18.19;69.07;100760.63;4989145;28;20415;-78
2021/06/25 05:58:36;;;;;;;27.92;19.33;;;21.80;67.00;;;18.40;68.17;100764.84;4989631;28;20081;-81
2021/06/25 06:01:04;;;;;;;32.47;20.83;;;24.30;59.20;;;18.67;67.34;100756.25;4989471;28;20486;-80
2021/06/25 06:03:31;;;;;;;29.35;20.92;;;26.40;51.70;;;18.94;65.42;100770.53;4987325;28;20664;-80
2021/06/25 06:05:58;;;;;;;32.15;21.45;;;28.20;46.20;;;19.25;64.81;100760.34;4989284;28;20085;-80
2021/06/25 06:08:26;;;;;;;30.33;19.80;;;29.60;42.00;;;19.58;63.72;100770.00;4987967;28;20653;-80
2021/06/25 06:10:53;;;;;;;28.73;19.10;;;30.80;38.70;;;19.86;61.82;100767.41;4989288;28;20561;-80
2021/06/25 06:13:21;;;;;;;31.00;17.75;;;31.80;35.40;;;20.15;59.54;100767.50;4989136;28;20066;-80
2021/06/25 06:15:49;;;;;;;27.63;18.10;;;32.70;33.00;;;20.47;59.44;100767.09;4989254;28;20392;-81
2021/06/25 06:18:25;;;;;;;29.50;17.65;;;33.50;31.40;;;20.73;58.01;100762.94;4989064;28;20046;-80
2021/06/25 06:20:53;;;;;;;26.05;16.73;;;33.50;30.80;;;20.89;57.18;100776.00;4987802;28;20057;-81
2021/06/25 06:31:38;;;;;;;27.35;16.73;;;31.60;32.30;;;21.16;54.70;100772.63;4988941;28;20125;-80
2021/06/25 06:34:10;;;;;;;25.33;15.83;;;32.00;32.20;;;21.17;55.34;100770.69;4989296;28;20121;-80
2021/06/25 06:36:41;;;;;;;26.92;17.33;;;31.90;31.20;;;21.19;56.04;100765.72;4987175;28;20109;-80
2021/06/25 06:39:09;;;;;;;27.33;17.63;;;31.00;33.10;;;21.11;54.94;100769.75;4989153;28;20053;-80
2021/06/25 06:41:38;;;;;;;28.00;16.75;;;29.30;35.90;;;21.01;55.72;100764.84;4988650;28;20467;-80
2021/06/25 06:44:07;;;;;;;24.80;16.35;;;27.70;40.30;;;20.94;56.77;100764.16;4989053;28;20152;-81
2021/06/25 06:46:36;;;;;;;26.15;15.50;;;26.30;44.10;;;20.81;56.94;100762.56;4988395;28;20572;-81
2021/06/25 06:49:05;;;;;;;22.33;15.48;;;25.40;47.20;;;20.74;55.98;100764.63;4989066;28;20557;-80
2021/06/25 06:51:32;;;;;;;22.40;14.45;;;24.90;48.50;;;20.72;56.91;100757.66;4988997;28;20046;-80
2021/06/25 06:54:01;;;;;;;24.30;14.40;;;24.60;49.70;;;20.67;57.23;100767.50;4988894;28;20050;-80
2021/06/25 06:56:29;;;;;;;19.83;13.18;;;24.30;51.00;;;20.64;56.48;100769.97;4988510;28;20050;-79
2021/06/25 06:58:59;;;;;;;19.83;12.80;;;24.00;50.70;;;20.60;56.90;100775.13;4988668;28;20120;-79
2021/06/25 07:01:30;;;;;;;24.47;12.60;;;23.80;52.20;;;20.55;57.38;100768.63;4989033;28;20043;-80
2021/06/25 07:03:57;;;;;;;19.20;11.57;;;23.60;52.80;;;20.52;56.40;100769.94;4988619;28;20106;-80
2021/06/25 07:06:24;;;;;;;20.00;12.38;;;23.50;53.10;;;20.46;56.18;100779.22;4988512;28;20043;-79
2021/06/25 07:08:52;;;;;;;20.90;11.75;;;23.30;54.40;;;20.41;56.23;100779.97;4987881;28;20093;-80
2021/06/25 07:11:20;;;;;;;18.02;11.57;;;23.10;54.10;;;20.39;56.71;100781.28;4986411;28;20052;-80
2021/06/25 07:13:47;;;;;;;18.80;12.55;;;23.00;54.40;;;20.37;56.17;100783.44;4988677;28;20046;-80
2021/06/25 07:16:14;;;;;;;18.17;11.48;;;22.90;54.80;;;20.33;57.31;100788.59;4986900;28;20050;-81
2021/06/25 07:18:43;;;;;;;20.65;12.68;;;22.80;55.00;;;20.31;55.91;100775.06;4988722;28;20070;-81
2021/06/25 07:21:11;;;;;;;24.35;12.85;;;22.80;53.90;;;20.32;55.91;100778.66;4988408;28;20042;-80
2021/06/25 07:23:38;;;;;;;20.33;12.77;;;22.80;54.30;;;20.33;57.26;100776.72;4988759;28;20050;-80
2021/06/25 07:26:06;;;;;;;22.30;12.40;;;22.70;55.60;;;20.33;57.21;100783.09;4988129;28;20538;-80
2021/06/25 07:28:33;;;;;;;19.33;12.50;;;22.70;55.70;;;20.34;56.53;100781.19;4988165;28;20140;-81
2021/06/25 07:31:00;;;;;;;21.92;12.90;;;22.70;55.40;;;20.35;56.96;100780.06;4987569;28;20100;-80
2021/06/25 07:33:28;;;;;;;23.23;13.82;;;22.70;55.90;;;20.36;56.66;100787.31;4988504;28;20125;-80
2021/06/25 07:35:56;;;;;;;20.02;12.65;;;22.70;55.20;;;20.35;56.59;100774.56;4988335;28;20104;-80
2021/06/25 07:38:24;;;;;;;17.85;12.48;;;22.70;55.90;;;20.36;58.81;100787.31;4988081;28;20054;-80
2021/06/25 07:40:51;;;;;;;21.58;13.02;;;22.70;57.80;;;20.34;57.14;100775.66;4987026;28;20574;-79
2021/06/25 07:43:18;;;;;;;21.55;12.35;;;22.70;56.20;;;20.29;56.49;100782.72;4988412;28;20465;-80
2021/06/25 07:45:46;;;;;;;26.27;13.27;;;22.70;55.50;;;20.24;57.52;100790.09;4988386;28;20050;-80
2021/06/25 07:48:13;;;;;;;22.20;13.25;;;22.60;56.70;;;20.22;56.63;100787.56;4999740;28;20042;-79
2021/06/25 07:50:40;;;;;;;23.25;14.20;;;22.60;56.20;;;20.21;57.76;100785.88;5011272;28;20073;-79
2021/06/25 07:53:10;;;;;;;24.73;14.25;;;22.50;57.00;;;20.09;56.59;100785.06;5011412;28;20710;-79
2021/06/25 07:55:42;;;;;;;21.85;14.90;;;22.40;56.10;;;20.07;56.81;100778.94;5009911;28;20046;-80
2021/06/25 07:58:12;;;;;;;23.15;15.13;;;22.30;57.10;;;20.12;57.94;100776.25;5011053;28;20496;-80
2021/06/25 08:00:39;;;;;;;19.20;13.15;;;22.30;57.30;;;20.16;58.30;100782.97;5010941;28;20510;-79
2021/06/25 08:03:07;;;;;;;18.55;12.65;;;22.30;57.90;;;20.18;57.31;100782.75;5011217;28;20125;-79
2021/06/25 08:05:35;;;;;;;24.42;12.60;;;22.30;56.80;;;20.17;57.76;100783.84;4992363;28;20046;-81
2021/06/25 08:08:02;;;;;;;25.52;12.90;;;22.40;57.50;;;20.18;58.46;100786.38;4991390;28;20124;-80
2021/06/25 08:10:31;;;;;;;20.73;14.10;;;22.40;58.00;;;20.24;59.02;100782.63;4990069;28;20050;-81
2021/06/25 08:12:58;;;;;;;22.13;13.93;;;22.50;57.90;;;20.26;59.02;100774.94;4991582;28;20046;-81
2021/06/25 08:15:26;;;;;;;24.13;13.60;;;22.60;58.00;;;20.19;57.88;100774.22;4991565;28;20050;-81
2021/06/25 08:17:53;;;;;;;21.20;13.20;;;22.60;56.80;;;20.22;59.19;100770.97;4990955;28;20194;-81
2021/06/25 08:20:21;;;;;;;22.30;13.45;;;22.60;57.60;;;20.27;58.83;100767.47;4991387;28;20054;-82
2021/06/25 08:22:48;;;;;;;24.08;12.73;;;22.60;57.60;;;20.31;59.14;100769.53;4991182;28;20047;-80
2021/06/25 08:25:15;;;;;;;20.63;13.48;;;22.70;58.40;;;20.35;59.37;100763.50;4991273;28;20050;-81
2021/06/25 08:27:44;;;;;;;21.45;12.77;;;22.70;58.80;;;20.39;60.54;100770.22;4990843;28;20072;-80
2021/06/25 08:30:13;;;;;;;19.38;13.40;;;22.80;59.40;;;20.38;59.11;100768.53;4991151;28;20096;-81
2021/06/25 08:32:42;;;;;;;18.73;13.15;;;22.80;58.30;;;20.44;61.38;100767.56;4990644;28;20050;-81
2021/06/25 08:35:12;;;;;;;22.60;13.75;;;22.90;59.10;;;20.48;60.47;100760.47;4991077;28;20121;-81
2021/06/25 08:37:39;;;;;;;18.58;12.45;;;23.00;58.40;;;20.47;58.88;100758.78;4990745;28;20042;-81
2021/06/25 08:40:09;;;;;;;19.88;12.57;;;23.00;57.00;;;20.48;59.04;100766.00;4990639;28;20042;-81
2021/06/25 08:42:38;;;;;;;19.08;12.23;;;22.90;58.10;;;20.52;59.08;100756.13;4990732;28;20077;-81
2021/06/25 08:45:11;;;;;;;20.45;12.20;;;23.00;58.40;;;20.55;60.26;100750.09;4990656;28;20045;-81
2021/06/25 08:47:42;;;;;;;24.23;12.65;;;23.10;59.30;;;20.57;60.53;100756.22;4990706;28;20065;-80
2021/06/25 08:50:11;;;;;;;;;;;23.10;58.60;;;20.61;61.12;100748.31;4991005;28;20046;-81
2021/06/25 08:52:38;;;;;;;19.73;11.07;;;23.10;58.90;;;20.64;60.28;100748.66;4990850;28;20008;-81
2021/06/25 08:55:07;;;;;;;19.95;12.18;;;23.20;58.60;;;20.65;60.25;100742.03;4990868;28;20802;-81
2021/06/25 08:57:35;;;;;;;21.20;12.07;;;23.20;58.50;;;20.68;58.66;100744.31;4988622;28;20097;-81
2021/06/25 09:00:05;;;;;;;17.48;11.55;;;23.20;57.10;;;20.73;60.50;100742.72;5004449;28;20042;-81
2021/06/25 09:02:36;;;;;;;20.45;12.80;;;23.30;58.20;;;20.78;58.78;100729.00;4997351;28;20041;-81
2021/06/25 09:05:05;;;;;;;19.17;13.07;;;23.30;58.10;;;20.79;61.39;100730.69;4995961;28;20046;-81
2021/06/25 09:07:43;;;;;;;22.52;12.65;;;23.30;58.10;;;20.84;60.62;100737.16;5006990;23;20053;-87
2021/06/25 09:10:13;;;;;;;16.58;10.85;;;23.40;58.40;;;20.86;60.96;100734.13;4987479;28;20055;-88
2021/06/25 09:13:01;;;;;;;19.33;12.40;;;23.40;58.80;;;20.82;59.12;100731.03;4990311;28;20113;-89
2021/06/25 09:15:31;;;;;;;19.02;12.48;;;23.40;58.10;;;20.81;59.46;100734.03;4973141;28;20057;-89
2021/06/25 09:18:02;;;;;;;19.45;10.98;;;23.30;57.80;;;20.80;59.63;100733.19;4972641;28;20077;-89
2021/06/25 09:20:32;;;;;;;;;;;23.30;57.70;;;20.82;57.36;100730.19;4990286;28;20053;-88
2021/06/25 09:22:59;;;;;;;16.42;10.95;;;23.20;56.80;;;20.81;59.72;100728.50;4990397;28;20012;-89
2021/06/25 09:25:26;;;;;;;17.13;11.63;;;23.20;58.20;;;20.80;58.40;100726.84;4990306;28;20418;-89
2021/06/25 09:27:57;;;;;;;14.80;10.90;;;23.20;57.50;;;20.81;60.27;100728.50;4987938;28;20582;-86
2021/06/25 09:30:25;;;;;;;16.43;11.10;;;23.20;58.00;;;;;;4989795;28;20128;-87
2021/06/25 09:32:53;;;;;;;15.45;11.43;;;23.20;58.50;;;20.88;60.84;100734.72;4991567;28;20281;-85
2021/06/25 09:35:28;;;;;;;20.23;11.45;;;23.30;59.40;;;20.86;60.40;100723.06;5005977;28;20073;-85
2021/06/25 09:37:56;;;;;;;16.88;11.32;;;23.30;59.20;;;20.87;60.32;100722.00;4984694;28;20077;-86
2021/06/25 09:40:23;;;;;;;19.15;12.18;;;23.20;59.00;;;20.86;59.54;100725.84;5009283;28;20049;-85
2021/06/25 09:43:10;;;;;;;21.00;12.18;;;23.20;58.90;;;20.81;58.28;100725.72;5009189;28;20054;-84
2021/06/25 09:45:47;;;;;;;17.08;11.80;;;23.10;58.60;;;20.81;60.48;100720.19;5009617;28;20045;-86
2021/06/25 09:48:14;;;;;;;22.23;11.77;;;23.00;60.00;;;20.82;60.39;100719.97;5007684;28;20053;-84
2021/06/25 09:50:45;;;;;;;21.98;11.98;;;23.00;60.00;;;20.79;60.39;100720.47;5002761;28;20038;-85
2021/06/25 09:53:12;;;;;;;19.10;12.15;;;23.00;59.20;;;20.81;61.42;100721.06;4971812;28;20046;-85
2021/06/25 09:55:53;;;;;;;19.55;13.80;;;23.10;60.50;;;20.80;60.98;100724.06;4972119;28;20081;-84
2021/06/25 10:01:23;;;;;;;22.23;13.77;;;22.90;60.40;;;20.78;61.90;100724.31;4989732;28;20498;-83
2021/06/25 10:03:53;;;;;;;25.52;13.73;;;22.90;61.70;;;20.78;62.27;100718.78;4989661;28;20097;-83
2021/06/25 10:06:23;;;;;;;21.13;13.45;;;22.80;62.30;;;20.76;61.43;100725.66;4989820;28;20070;-83
2021/06/25 10:08:53;;;;;;;23.15;14.55;;;22.80;61.20;;;20.74;60.37;100723.13;4989196;28;20057;-84
2021/06/25 10:11:22;;;;;;;22.63;14.68;;;22.70;61.30;;;20.74;62.05;100716.78;4988782;28;20081;-85
2021/06/25 10:13:51;;;;;;;21.08;13.13;;;22.70;62.60;;;20.75;61.95;100722.03;4989710;28;20463;-82
2021/06/25 10:16:18;;;;;;;20.33;13.88;;;22.70;62.50;;;20.74;61.34;100717.59;4989171;28;20042;-80
2021/06/25 10:18:49;;;;;;;22.85;14.55;;;22.70;61.80;;;20.70;61.94;100713.66;4986192;28;20051;-80